sensor_id;sensor_type;location;lat;lon;timestamp;temperature;humidity
9849;DHT22;4963;51.444;6.528;2024-03-02T00:01:24;7.90;99.90
9849;DHT22;4963;51.444;6.528;2024-03-02T00:03:51;7.90;99.90
9849;DHT22;4963;51.444;6.528;2024-03-02T00:06:20;7.90;99.90
9849;DHT22;4963;51.444;6.528;2024-03-02T00:08:49;7.90;99.90
9849;DHT22;4963;51.444;6.528;2024-03-02T00:11:16;7.90;99.90
9849;DHT22;4963;51.444;6.528;2024-03-02T00:13:45;7.90;99.90
9849;DHT22;4963;51.444;6.528;2024-03-02T00:16:12;7.90;99.90
9849;DHT22;4963;51.444;6.528;2024-03-02T00:18:39;7.80;99.90
9849;DHT22;4963;51.444;6.528;2024-03-02T00:21:07;7.80;99.90
9849;DHT22;4963;51.444;6.528;2024-03-02T00:23:35;7.90;99.90
9849;DHT22;4963;51.444;6.528;2024-03-02T00:26:04;7.90;99.90
9849;DHT22;4963;51.444;6.528;2024-03-02T00:28:33;7.90;99.90
9849;DHT22;4963;51.444;6.528;2024-03-02T00:31:03;7.90;99.90
9849;DHT22;4963;51.444;6.528;2024-03-02T00:33:32;8.00;99.90
9849;DHT22;4963;51.444;6.528;2024-03-02T00:36:00;8.10;99.90
9849;DHT22;4963;51.444;6.528;2024-03-02T00:38:27;8.10;99.90
9849;DHT22;4963;51.444;6.528;2024-03-02T00:40:54;8.10;99.90
9849;DHT22;4963;51.444;6.528;2024-03-02T00:43:43;8.20;99.90
9849;DHT22;4963;51.444;6.528;2024-03-02T00:46:11;8.20;99.90
9849;DHT22;4963;51.444;6.528;2024-03-02T00:48:39;8.20;99.90
9849;DHT22;4963;51.444;6.528;2024-03-02T00:51:11;8.20;99.90
9849;DHT22;4963;51.444;6.528;2024-03-02T00:53:38;8.20;99.90
9849;DHT22;4963;51.444;6.528;2024-03-02T00:56:09;8.20;99.90
9849;DHT22;4963;51.444;6.528;2024-03-02T00:58:37;8.30;99.90
9849;DHT22;4963;51.444;6.528;2024-03-02T01:01:06;8.20;99.90
9849;DHT22;4963;51.444;6.528;2024-03-02T01:03:32;8.30;99.90
9849;DHT22;4963;51.444;6.528;2024-03-02T01:05:59;8.40;99.90
9849;DHT22;4963;51.444;6.528;2024-03-02T01:08:26;8.40;99.90
9849;DHT22;4963;51.444;6.528;2024-03-02T01:10:54;8.40;99.90
9849;DHT22;4963;51.444;6.528;2024-03-02T01:13:22;8.40;99.90
9849;DHT22;4963;51.444;6.528;2024-03-02T01:15:49;8.40;99.90
9849;DHT22;4963;51.444;6.528;2024-03-02T01:18:17;8.40;99.90
9849;DHT22;4963;51.444;6.528;2024-03-02T01:20:44;8.40;99.90
9849;DHT22;4963;51.444;6.528;2024-03-02T01:23:11;8.50;99.90
9849;DHT22;4963;51.444;6.528;2024-03-02T01:25:39;8.50;99.90
9849;DHT22;4963;51.444;6.528;2024-03-02T01:28:06;8.50;99.90
9849;DHT22;4963;51.444;6.528;2024-03-02T01:30:34;8.50;99.90
9849;DHT22;4963;51.444;6.528;2024-03-02T01:33:00;8.60;99.90
9849;DHT22;4963;51.444;6.528;2024-03-02T01:35:29;8.60;99.90
9849;DHT22;4963;51.444;6.528;2024-03-02T01:37:55;8.60;99.90
9849;DHT22;4963;51.444;6.528;2024-03-02T01:40:22;8.70;99.90
9849;DHT22;4963;51.444;6.528;2024-03-02T01:42:52;8.60;99.90
9849;DHT22;4963;51.444;6.528;2024-03-02T01:45:19;8.70;99.90
9849;DHT22;4963;51.444;6.528;2024-03-02T01:47:46;8.70;99.90
9849;DHT22;4963;51.444;6.528;2024-03-02T01:50:13;8.70;99.90
9849;DHT22;4963;51.444;6.528;2024-03-02T01:52:41;8.70;99.90
9849;DHT22;4963;51.444;6.528;2024-03-02T01:55:09;8.70;99.90
9849;DHT22;4963;51.444;6.528;2024-03-02T01:57:36;8.70;99.90
9849;DHT22;4963;51.444;6.528;2024-03-02T02:00:04;8.70;99.90
9849;DHT22;4963;51.444;6.528;2024-03-02T02:02:35;8.80;99.90
9849;DHT22;4963;51.444;6.528;2024-03-02T02:05:02;8.80;99.90
9849;DHT22;4963;51.444;6.528;2024-03-02T02:07:29;8.80;99.90
9849;DHT22;4963;51.444;6.528;2024-03-02T02:09:58;8.80;99.90
9849;DHT22;4963;51.444;6.528;2024-03-02T02:12:25;8.80;99.90
9849;DHT22;4963;51.444;6.528;2024-03-02T02:14:53;8.80;99.90
9849;DHT22;4963;51.444;6.528;2024-03-02T02:17:20;8.80;99.90
9849;DHT22;4963;51.444;6.528;2024-03-02T02:19:47;8.80;99.90
9849;DHT22;4963;51.444;6.528;2024-03-02T02:22:15;8.80;99.90
9849;DHT22;4963;51.444;6.528;2024-03-02T02:24:43;8.70;99.90
9849;DHT22;4963;51.444;6.528;2024-03-02T02:27:09;8.70;99.90
9849;DHT22;4963;51.444;6.528;2024-03-02T02:29:38;8.70;99.90
9849;DHT22;4963;51.444;6.528;2024-03-02T02:32:05;8.70;99.90
9849;DHT22;4963;51.444;6.528;2024-03-02T02:34:32;8.70;99.90
9849;DHT22;4963;51.444;6.528;2024-03-02T02:36:59;8.70;99.90
9849;DHT22;4963;51.444;6.528;2024-03-02T02:39:28;8.70;99.90
9849;DHT22;4963;51.444;6.528;2024-03-02T02:41:55;8.70;99.90
9849;DHT22;4963;51.444;6.528;2024-03-02T02:44:21;8.60;99.90
9849;DHT22;4963;51.444;6.528;2024-03-02T02:46:48;8.60;99.90
9849;DHT22;4963;51.444;6.528;2024-03-02T02:49:15;8.60;99.90
9849;DHT22;4963;51.444;6.528;2024-03-02T02:51:42;8.60;99.90
9849;DHT22;4963;51.444;6.528;2024-03-02T02:54:09;8.60;99.90
9849;DHT22;4963;51.444;6.528;2024-03-02T02:56:37;8.60;99.90
9849;DHT22;4963;51.444;6.528;2024-03-02T02:59:04;8.50;99.90
9849;DHT22;4963;51.444;6.528;2024-03-02T03:01:31;8.60;99.90
9849;DHT22;4963;51.444;6.528;2024-03-02T03:03:58;8.50;99.90
9849;DHT22;4963;51.444;6.528;2024-03-02T03:06:25;8.50;99.90
9849;DHT22;4963;51.444;6.528;2024-03-02T03:08:51;8.40;99.90
9849;DHT22;4963;51.444;6.528;2024-03-02T03:11:18;8.40;99.90
9849;DHT22;4963;51.444;6.528;2024-03-02T03:13:46;8.30;99.90
9849;DHT22;4963;51.444;6.528;2024-03-02T03:16:13;8.30;99.90
9849;DHT22;4963;51.444;6.528;2024-03-02T03:18:40;8.20;99.90
9849;DHT22;4963;51.444;6.528;2024-03-02T03:21:08;8.30;99.90
9849;DHT22;4963;51.444;6.528;2024-03-02T03:23:35;8.30;99.90
9849;DHT22;4963;51.444;6.528;2024-03-02T03:26:02;8.30;99.90
9849;DHT22;4963;51.444;6.528;2024-03-02T03:28:30;8.30;99.90
9849;DHT22;4963;51.444;6.528;2024-03-02T03:30:58;8.30;99.90
9849;DHT22;4963;51.444;6.528;2024-03-02T03:33:25;8.30;99.90
9849;DHT22;4963;51.444;6.528;2024-03-02T03:35:51;8.30;99.90
9849;DHT22;4963;51.444;6.528;2024-03-02T03:38:19;8.30;99.90
9849;DHT22;4963;51.444;6.528;2024-03-02T03:40:45;8.30;99.90
9849;DHT22;4963;51.444;6.528;2024-03-02T03:43:13;8.40;99.90
9849;DHT22;4963;51.444;6.528;2024-03-02T03:45:42;8.40;99.90
9849;DHT22;4963;51.444;6.528;2024-03-02T03:48:10;8.30;99.90
9849;DHT22;4963;51.444;6.528;2024-03-02T03:50:37;8.40;99.90
9849;DHT22;4963;51.444;6.528;2024-03-02T03:53:04;8.30;99.90
9849;DHT22;4963;51.444;6.528;2024-03-02T03:55:31;8.30;99.90
9849;DHT22;4963;51.444;6.528;2024-03-02T03:57:58;8.30;99.90
9849;DHT22;4963;51.444;6.528;2024-03-02T04:00:24;8.20;99.90
9849;DHT22;4963;51.444;6.528;2024-03-02T04:02:51;8.20;99.90
9849;DHT22;4963;51.444;6.528;2024-03-02T04:05:19;8.10;99.90
9849;DHT22;4963;51.444;6.528;2024-03-02T04:07:46;8.10;99.90
9849;DHT22;4963;51.444;6.528;2024-03-02T04:10:13;8.00;99.90
9849;DHT22;4963;51.444;6.528;2024-03-02T04:12:41;8.00;99.90
9849;DHT22;4963;51.444;6.528;2024-03-02T04:15:08;8.00;99.90
9849;DHT22;4963;51.444;6.528;2024-03-02T04:17:35;8.00;99.90
9849;DHT22;4963;51.444;6.528;2024-03-02T04:20:02;7.90;99.90
9849;DHT22;4963;51.444;6.528;2024-03-02T04:22:34;7.90;99.90
9849;DHT22;4963;51.444;6.528;2024-03-02T04:25:01;7.80;99.90
9849;DHT22;4963;51.444;6.528;2024-03-02T04:27:30;7.80;99.90
9849;DHT22;4963;51.444;6.528;2024-03-02T04:29:57;7.80;99.90
9849;DHT22;4963;51.444;6.528;2024-03-02T04:32:25;7.80;99.90
9849;DHT22;4963;51.444;6.528;2024-03-02T04:34:52;7.70;99.90
9849;DHT22;4963;51.444;6.528;2024-03-02T04:37:19;7.70;99.90
9849;DHT22;4963;51.444;6.528;2024-03-02T04:39:49;7.70;99.90
9849;DHT22;4963;51.444;6.528;2024-03-02T04:42:15;7.70;99.90
9849;DHT22;4963;51.444;6.528;2024-03-02T04:44:42;7.70;99.90
9849;DHT22;4963;51.444;6.528;2024-03-02T04:47:09;7.70;99.90
9849;DHT22;4963;51.444;6.528;2024-03-02T04:49:36;7.70;99.90
9849;DHT22;4963;51.444;6.528;2024-03-02T04:52:03;7.70;99.90
9849;DHT22;4963;51.444;6.528;2024-03-02T04:54:30;7.60;99.90
9849;DHT22;4963;51.444;6.528;2024-03-02T04:57:00;7.60;99.90
9849;DHT22;4963;51.444;6.528;2024-03-02T04:59:26;7.60;99.90
9849;DHT22;4963;51.444;6.528;2024-03-02T05:01:55;7.60;99.90
9849;DHT22;4963;51.444;6.528;2024-03-02T05:04:22;7.50;99.90
9849;DHT22;4963;51.444;6.528;2024-03-02T05:06:48;7.60;99.90
9849;DHT22;4963;51.444;6.528;2024-03-02T05:09:18;7.60;99.90
9849;DHT22;4963;51.444;6.528;2024-03-02T05:11:45;7.50;99.90
9849;DHT22;4963;51.444;6.528;2024-03-02T05:14:38;7.40;99.90
9849;DHT22;4963;51.444;6.528;2024-03-02T05:17:05;7.30;99.90
9849;DHT22;4963;51.444;6.528;2024-03-02T05:19:32;7.30;99.90
9849;DHT22;4963;51.444;6.528;2024-03-02T05:21:59;7.30;99.90
9849;DHT22;4963;51.444;6.528;2024-03-02T05:24:26;7.20;99.90
9849;DHT22;4963;51.444;6.528;2024-03-02T05:26:53;7.20;99.90
9849;DHT22;4963;51.444;6.528;2024-03-02T05:29:20;7.20;99.90
9849;DHT22;4963;51.444;6.528;2024-03-02T05:31:49;7.10;99.90
9849;DHT22;4963;51.444;6.528;2024-03-02T05:34:16;7.10;99.90
9849;DHT22;4963;51.444;6.528;2024-03-02T05:36:44;7.10;99.90
9849;DHT22;4963;51.444;6.528;2024-03-02T05:39:10;7.00;99.90
9849;DHT22;4963;51.444;6.528;2024-03-02T05:41:37;7.10;99.90
9849;DHT22;4963;51.444;6.528;2024-03-02T05:44:04;7.10;99.90
9849;DHT22;4963;51.444;6.528;2024-03-02T05:46:31;7.00;99.90
9849;DHT22;4963;51.444;6.528;2024-03-02T05:49:00;7.00;99.90
9849;DHT22;4963;51.444;6.528;2024-03-02T05:51:27;6.90;99.90
9849;DHT22;4963;51.444;6.528;2024-03-02T05:53:54;7.00;99.90
9849;DHT22;4963;51.444;6.528;2024-03-02T05:56:21;7.00;99.90
9849;DHT22;4963;51.444;6.528;2024-03-02T05:58:48;7.00;99.90
9849;DHT22;4963;51.444;6.528;2024-03-02T06:01:26;7.00;99.90
9849;DHT22;4963;51.444;6.528;2024-03-02T06:03:55;7.00;99.90
9849;DHT22;4963;51.444;6.528;2024-03-02T06:06:27;7.00;99.90
9849;DHT22;4963;51.444;6.528;2024-03-02T06:08:54;7.00;99.90
9849;DHT22;4963;51.444;6.528;2024-03-02T06:11:22;7.00;99.90
9849;DHT22;4963;51.444;6.528;2024-03-02T06:13:49;7.00;99.90
9849;DHT22;4963;51.444;6.528;2024-03-02T06:16:16;7.00;99.90
9849;DHT22;4963;51.444;6.528;2024-03-02T06:18:43;7.00;99.90
9849;DHT22;4963;51.444;6.528;2024-03-02T06:21:09;7.00;99.90
9849;DHT22;4963;51.444;6.528;2024-03-02T06:23:38;7.00;99.90
9849;DHT22;4963;51.444;6.528;2024-03-02T06:26:05;6.90;99.90
9849;DHT22;4963;51.444;6.528;2024-03-02T06:28:32;7.00;99.90
9849;DHT22;4963;51.444;6.528;2024-03-02T06:30:59;7.00;99.90
9849;DHT22;4963;51.444;6.528;2024-03-02T06:33:26;7.00;99.90
9849;DHT22;4963;51.444;6.528;2024-03-02T06:35:54;7.00;99.90
9849;DHT22;4963;51.444;6.528;2024-03-02T06:38:20;7.10;99.90
9849;DHT22;4963;51.444;6.528;2024-03-02T06:40:49;7.10;99.90
9849;DHT22;4963;51.444;6.528;2024-03-02T06:43:16;7.20;99.90
9849;DHT22;4963;51.444;6.528;2024-03-02T06:45:43;7.20;99.90
9849;DHT22;4963;51.444;6.528;2024-03-02T06:48:12;7.20;99.90
9849;DHT22;4963;51.444;6.528;2024-03-02T06:50:41;7.30;99.90
9849;DHT22;4963;51.444;6.528;2024-03-02T06:53:10;7.30;99.90
9849;DHT22;4963;51.444;6.528;2024-03-02T06:55:36;7.30;99.90
9849;DHT22;4963;51.444;6.528;2024-03-02T06:58:05;7.30;99.90
9849;DHT22;4963;51.444;6.528;2024-03-02T07:00:32;7.40;99.90
9849;DHT22;4963;51.444;6.528;2024-03-02T07:02:59;7.40;99.90
9849;DHT22;4963;51.444;6.528;2024-03-02T07:05:25;7.40;99.90
9849;DHT22;4963;51.444;6.528;2024-03-02T07:07:52;7.40;99.90
9849;DHT22;4963;51.444;6.528;2024-03-02T07:10:19;7.40;99.90
9849;DHT22;4963;51.444;6.528;2024-03-02T07:12:46;7.40;99.90
9849;DHT22;4963;51.444;6.528;2024-03-02T07:15:14;7.50;99.90
9849;DHT22;4963;51.444;6.528;2024-03-02T07:17:58;7.50;99.90
9849;DHT22;4963;51.444;6.528;2024-03-02T07:20:27;7.50;99.90
9849;DHT22;4963;51.444;6.528;2024-03-02T07:22:53;7.50;99.90
9849;DHT22;4963;51.444;6.528;2024-03-02T07:25:20;7.60;99.90
9849;DHT22;4963;51.444;6.528;2024-03-02T07:27:48;7.70;99.90
9849;DHT22;4963;51.444;6.528;2024-03-02T07:30:16;7.80;99.90
9849;DHT22;4963;51.444;6.528;2024-03-02T07:32:43;7.90;99.90
9849;DHT22;4963;51.444;6.528;2024-03-02T07:35:12;7.90;99.90
9849;DHT22;4963;51.444;6.528;2024-03-02T07:37:41;8.00;99.90
9849;DHT22;4963;51.444;6.528;2024-03-02T07:40:09;8.00;99.90
9849;DHT22;4963;51.444;6.528;2024-03-02T07:42:37;8.00;99.90
9849;DHT22;4963;51.444;6.528;2024-03-02T07:45:06;8.00;99.90
9849;DHT22;4963;51.444;6.528;2024-03-02T07:47:37;8.10;99.90
9849;DHT22;4963;51.444;6.528;2024-03-02T07:50:05;8.10;99.90
9849;DHT22;4963;51.444;6.528;2024-03-02T07:52:32;8.20;99.90
9849;DHT22;4963;51.444;6.528;2024-03-02T07:54:59;8.20;99.90
9849;DHT22;4963;51.444;6.528;2024-03-02T07:57:27;8.30;99.90
9849;DHT22;4963;51.444;6.528;2024-03-02T07:59:55;8.30;99.90
9849;DHT22;4963;51.444;6.528;2024-03-02T08:02:22;8.30;99.90
9849;DHT22;4963;51.444;6.528;2024-03-02T08:04:50;8.40;99.90
9849;DHT22;4963;51.444;6.528;2024-03-02T08:07:17;8.50;99.90
9849;DHT22;4963;51.444;6.528;2024-03-02T08:09:46;8.60;99.90
9849;DHT22;4963;51.444;6.528;2024-03-02T08:12:13;8.60;99.90
9849;DHT22;4963;51.444;6.528;2024-03-02T08:14:40;8.60;99.90
9849;DHT22;4963;51.444;6.528;2024-03-02T08:17:07;8.70;99.90
9849;DHT22;4963;51.444;6.528;2024-03-02T08:19:35;8.80;99.90
9849;DHT22;4963;51.444;6.528;2024-03-02T08:22:03;8.90;99.90
9849;DHT22;4963;51.444;6.528;2024-03-02T08:24:32;9.10;99.90
9849;DHT22;4963;51.444;6.528;2024-03-02T08:26:59;9.20;99.90
9849;DHT22;4963;51.444;6.528;2024-03-02T08:29:26;9.30;99.90
9849;DHT22;4963;51.444;6.528;2024-03-02T08:31:54;9.40;99.90
9849;DHT22;4963;51.444;6.528;2024-03-02T08:34:21;9.60;99.90
9849;DHT22;4963;51.444;6.528;2024-03-02T08:36:48;9.90;99.90
9849;DHT22;4963;51.444;6.528;2024-03-02T08:39:16;10.10;99.90
9849;DHT22;4963;51.444;6.528;2024-03-02T08:41:45;10.30;99.90
9849;DHT22;4963;51.444;6.528;2024-03-02T08:44:13;10.50;99.90
9849;DHT22;4963;51.444;6.528;2024-03-02T08:46:40;10.70;99.90
9849;DHT22;4963;51.444;6.528;2024-03-02T08:49:07;10.90;99.90
9849;DHT22;4963;51.444;6.528;2024-03-02T08:51:34;11.10;99.90
9849;DHT22;4963;51.444;6.528;2024-03-02T08:54:01;11.40;99.90
9849;DHT22;4963;51.444;6.528;2024-03-02T08:56:31;11.60;99.90
9849;DHT22;4963;51.444;6.528;2024-03-02T08:58:58;11.80;99.10
9849;DHT22;4963;51.444;6.528;2024-03-02T09:01:25;11.70;99.20
9849;DHT22;4963;51.444;6.528;2024-03-02T09:03:51;11.80;99.50
9849;DHT22;4963;51.444;6.528;2024-03-02T09:06:18;11.80;99.00
9849;DHT22;4963;51.444;6.528;2024-03-02T09:08:47;11.70;98.60
9849;DHT22;4963;51.444;6.528;2024-03-02T09:11:15;11.60;98.90
9849;DHT22;4963;51.444;6.528;2024-03-02T09:13:43;11.60;99.20
9849;DHT22;4963;51.444;6.528;2024-03-02T09:16:11;11.50;99.10
9849;DHT22;4963;51.444;6.528;2024-03-02T09:18:37;11.40;99.00
9849;DHT22;4963;51.444;6.528;2024-03-02T09:21:04;11.20;99.20
9849;DHT22;4963;51.444;6.528;2024-03-02T09:23:32;11.10;99.80
9849;DHT22;4963;51.444;6.528;2024-03-02T09:25:59;11.00;99.90
9849;DHT22;4963;51.444;6.528;2024-03-02T09:28:26;11.00;99.50
9849;DHT22;4963;51.444;6.528;2024-03-02T09:30:55;10.90;99.90
9849;DHT22;4963;51.444;6.528;2024-03-02T09:33:22;10.90;99.90
9849;DHT22;4963;51.444;6.528;2024-03-02T09:35:51;10.90;99.90
9849;DHT22;4963;51.444;6.528;2024-03-02T09:38:17;10.90;99.90
9849;DHT22;4963;51.444;6.528;2024-03-02T09:40:44;10.90;99.90
9849;DHT22;4963;51.444;6.528;2024-03-02T09:43:12;10.90;99.70
9849;DHT22;4963;51.444;6.528;2024-03-02T09:45:39;10.80;99.20
9849;DHT22;4963;51.444;6.528;2024-03-02T09:48:07;10.80;99.20
9849;DHT22;4963;51.444;6.528;2024-03-02T09:50:34;10.70;99.20
9849;DHT22;4963;51.444;6.528;2024-03-02T09:53:01;10.80;99.50
9849;DHT22;4963;51.444;6.528;2024-03-02T09:55:28;10.70;99.60
9849;DHT22;4963;51.444;6.528;2024-03-02T09:57:55;10.80;99.10
9849;DHT22;4963;51.444;6.528;2024-03-02T10:00:22;10.80;98.80
9849;DHT22;4963;51.444;6.528;2024-03-02T10:02:51;10.70;99.10
9849;DHT22;4963;51.444;6.528;2024-03-02T10:05:26;10.80;99.40
9849;DHT22;4963;51.444;6.528;2024-03-02T10:08:00;10.80;99.40
9849;DHT22;4963;51.444;6.528;2024-03-02T10:10:35;10.90;99.40
9849;DHT22;4963;51.444;6.528;2024-03-02T10:13:06;11.00;99.00
9849;DHT22;4963;51.444;6.528;2024-03-02T10:15:34;11.00;98.60
9849;DHT22;4963;51.444;6.528;2024-03-02T10:18:02;11.10;98.80
9849;DHT22;4963;51.444;6.528;2024-03-02T10:20:31;11.10;98.80
9849;DHT22;4963;51.444;6.528;2024-03-02T10:23:10;11.20;98.70
9849;DHT22;4963;51.444;6.528;2024-03-02T10:25:37;11.20;98.10
9849;DHT22;4963;51.444;6.528;2024-03-02T10:28:06;11.10;97.90
9849;DHT22;4963;51.444;6.528;2024-03-02T10:30:33;11.10;98.10
9849;DHT22;4963;51.444;6.528;2024-03-02T10:33:01;11.10;98.40
9849;DHT22;4963;51.444;6.528;2024-03-02T10:35:30;11.20;98.10
9849;DHT22;4963;51.444;6.528;2024-03-02T10:37:59;11.20;98.20
9849;DHT22;4963;51.444;6.528;2024-03-02T10:40:26;11.20;98.20
9849;DHT22;4963;51.444;6.528;2024-03-02T10:42:53;11.20;97.50
9849;DHT22;4963;51.444;6.528;2024-03-02T10:45:20;11.30;97.60
9849;DHT22;4963;51.444;6.528;2024-03-02T10:47:49;11.30;97.40
9849;DHT22;4963;51.444;6.528;2024-03-02T10:50:17;11.30;97.60
9849;DHT22;4963;51.444;6.528;2024-03-02T10:52:45;11.40;97.40
9849;DHT22;4963;51.444;6.528;2024-03-02T10:55:12;11.40;97.10
9849;DHT22;4963;51.444;6.528;2024-03-02T10:57:42;11.40;96.90
9849;DHT22;4963;51.444;6.528;2024-03-02T11:00:13;11.40;96.60
9849;DHT22;4963;51.444;6.528;2024-03-02T11:02:49;11.50;95.60
9849;DHT22;4963;51.444;6.528;2024-03-02T11:05:24;11.50;96.10
9849;DHT22;4963;51.444;6.528;2024-03-02T11:07:57;11.50;95.30
9849;DHT22;4963;51.444;6.528;2024-03-02T11:10:28;11.40;95.10
9849;DHT22;4963;51.444;6.528;2024-03-02T11:13:01;11.50;95.60
9849;DHT22;4963;51.444;6.528;2024-03-02T11:15:30;11.50;95.90
9849;DHT22;4963;51.444;6.528;2024-03-02T11:17:58;11.60;95.10
9849;DHT22;4963;51.444;6.528;2024-03-02T11:20:25;11.60;95.50
9849;DHT22;4963;51.444;6.528;2024-03-02T11:22:55;11.70;95.30
9849;DHT22;4963;51.444;6.528;2024-03-02T11:25:25;11.70;95.40
9849;DHT22;4963;51.444;6.528;2024-03-02T11:28:05;11.80;95.60
9849;DHT22;4963;51.444;6.528;2024-03-02T11:30:51;11.90;95.90
9849;DHT22;4963;51.444;6.528;2024-03-02T11:33:25;12.00;95.70
9849;DHT22;4963;51.444;6.528;2024-03-02T11:35:56;12.00;95.70
9849;DHT22;4963;51.444;6.528;2024-03-02T11:38:30;12.10;96.20
9849;DHT22;4963;51.444;6.528;2024-03-02T11:40:59;12.10;96.10
9849;DHT22;4963;51.444;6.528;2024-03-02T11:43:27;12.10;96.30
9849;DHT22;4963;51.444;6.528;2024-03-02T11:45:57;12.10;96.50
9849;DHT22;4963;51.444;6.528;2024-03-02T11:48:24;12.10;96.50
9849;DHT22;4963;51.444;6.528;2024-03-02T11:50:52;12.10;96.70
9849;DHT22;4963;51.444;6.528;2024-03-02T11:53:20;12.10;96.70
9849;DHT22;4963;51.444;6.528;2024-03-02T11:55:49;12.20;97.00
9849;DHT22;4963;51.444;6.528;2024-03-02T11:58:16;12.20;96.90
9849;DHT22;4963;51.444;6.528;2024-03-02T12:00:46;12.20;96.80
9849;DHT22;4963;51.444;6.528;2024-03-02T12:03:13;12.20;96.70
9849;DHT22;4963;51.444;6.528;2024-03-02T12:05:42;12.20;96.90
9849;DHT22;4963;51.444;6.528;2024-03-02T12:08:11;12.20;97.10
9849;DHT22;4963;51.444;6.528;2024-03-02T12:10:38;12.20;96.50
9849;DHT22;4963;51.444;6.528;2024-03-02T12:13:07;12.30;96.50
9849;DHT22;4963;51.444;6.528;2024-03-02T12:15:38;12.30;96.40
9849;DHT22;4963;51.444;6.528;2024-03-02T12:18:06;12.20;96.30
9849;DHT22;4963;51.444;6.528;2024-03-02T12:20:33;12.20;95.90
9849;DHT22;4963;51.444;6.528;2024-03-02T12:23:02;12.20;96.30
9849;DHT22;4963;51.444;6.528;2024-03-02T12:25:32;12.10;96.00
9849;DHT22;4963;51.444;6.528;2024-03-02T12:28:00;12.20;96.00
9849;DHT22;4963;51.444;6.528;2024-03-02T12:30:30;12.20;96.00
9849;DHT22;4963;51.444;6.528;2024-03-02T12:32:57;12.20;95.60
9849;DHT22;4963;51.444;6.528;2024-03-02T12:35:25;12.30;95.50
9849;DHT22;4963;51.444;6.528;2024-03-02T12:37:53;12.40;96.00
9849;DHT22;4963;51.444;6.528;2024-03-02T12:40:22;12.40;95.60
9849;DHT22;4963;51.444;6.528;2024-03-02T12:42:50;12.50;95.90
9849;DHT22;4963;51.444;6.528;2024-03-02T12:45:18;12.50;95.40
9849;DHT22;4963;51.444;6.528;2024-03-02T12:47:50;12.60;95.20
9849;DHT22;4963;51.444;6.528;2024-03-02T12:50:18;12.60;95.40
9849;DHT22;4963;51.444;6.528;2024-03-02T12:52:51;12.60;95.40
9849;DHT22;4963;51.444;6.528;2024-03-02T12:55:20;12.60;95.30
9849;DHT22;4963;51.444;6.528;2024-03-02T12:57:49;12.60;95.30
9849;DHT22;4963;51.444;6.528;2024-03-02T13:00:18;12.70;95.00
9849;DHT22;4963;51.444;6.528;2024-03-02T13:02:46;12.70;94.90
9849;DHT22;4963;51.444;6.528;2024-03-02T13:05:14;12.70;94.70
9849;DHT22;4963;51.444;6.528;2024-03-02T13:07:46;12.80;95.00
9849;DHT22;4963;51.444;6.528;2024-03-02T13:10:13;12.70;94.90
9849;DHT22;4963;51.444;6.528;2024-03-02T13:12:40;12.80;94.90
9849;DHT22;4963;51.444;6.528;2024-03-02T13:15:08;12.80;94.40
9849;DHT22;4963;51.444;6.528;2024-03-02T13:17:35;12.80;94.70
9849;DHT22;4963;51.444;6.528;2024-03-02T13:20:03;12.90;94.80
9849;DHT22;4963;51.444;6.528;2024-03-02T13:22:35;12.90;94.60
9849;DHT22;4963;51.444;6.528;2024-03-02T13:25:02;12.90;94.70
9849;DHT22;4963;51.444;6.528;2024-03-02T13:27:31;12.90;94.80
9849;DHT22;4963;51.444;6.528;2024-03-02T13:29:58;12.90;94.80
9849;DHT22;4963;51.444;6.528;2024-03-02T13:32:25;13.00;94.60
9849;DHT22;4963;51.444;6.528;2024-03-02T13:34:52;13.10;95.00
9849;DHT22;4963;51.444;6.528;2024-03-02T13:37:20;13.10;95.00
9849;DHT22;4963;51.444;6.528;2024-03-02T13:39:48;13.20;94.80
9849;DHT22;4963;51.444;6.528;2024-03-02T13:42:15;13.30;94.80
9849;DHT22;4963;51.444;6.528;2024-03-02T13:44:43;13.30;94.40
9849;DHT22;4963;51.444;6.528;2024-03-02T13:47:11;13.30;94.30
9849;DHT22;4963;51.444;6.528;2024-03-02T13:49:38;13.30;94.40
9849;DHT22;4963;51.444;6.528;2024-03-02T13:52:09;13.30;94.50
9849;DHT22;4963;51.444;6.528;2024-03-02T13:54:39;13.30;94.40
9849;DHT22;4963;51.444;6.528;2024-03-02T13:57:08;13.40;94.40
9849;DHT22;4963;51.444;6.528;2024-03-02T13:59:35;13.30;94.10
9849;DHT22;4963;51.444;6.528;2024-03-02T14:02:03;13.40;94.20
9849;DHT22;4963;51.444;6.528;2024-03-02T14:04:32;13.40;94.10
9849;DHT22;4963;51.444;6.528;2024-03-02T14:07:00;13.50;94.20
9849;DHT22;4963;51.444;6.528;2024-03-02T14:09:27;13.50;94.20
9849;DHT22;4963;51.444;6.528;2024-03-02T14:11:54;13.50;94.60
9849;DHT22;4963;51.444;6.528;2024-03-02T14:14:23;13.50;94.80
9849;DHT22;4963;51.444;6.528;2024-03-02T14:16:50;13.50;94.50
9849;DHT22;4963;51.444;6.528;2024-03-02T14:19:17;13.50;94.60
9849;DHT22;4963;51.444;6.528;2024-03-02T14:21:44;13.50;94.50
9849;DHT22;4963;51.444;6.528;2024-03-02T14:24:13;13.40;94.30
9849;DHT22;4963;51.444;6.528;2024-03-02T14:26:40;13.30;94.20
9849;DHT22;4963;51.444;6.528;2024-03-02T14:29:07;13.30;94.40
9849;DHT22;4963;51.444;6.528;2024-03-02T14:31:37;13.20;94.20
9849;DHT22;4963;51.444;6.528;2024-03-02T14:34:04;13.20;94.50
9849;DHT22;4963;51.444;6.528;2024-03-02T14:36:30;13.10;94.40
9849;DHT22;4963;51.444;6.528;2024-03-02T14:38:57;13.10;94.80
9849;DHT22;4963;51.444;6.528;2024-03-02T14:41:24;13.10;94.70
9849;DHT22;4963;51.444;6.528;2024-03-02T14:43:51;13.10;94.90
9849;DHT22;4963;51.444;6.528;2024-03-02T14:46:20;13.10;94.90
9849;DHT22;4963;51.444;6.528;2024-03-02T14:48:48;13.10;95.00
9849;DHT22;4963;51.444;6.528;2024-03-02T14:51:15;13.20;95.10
9849;DHT22;4963;51.444;6.528;2024-03-02T14:53:42;13.20;94.90
9849;DHT22;4963;51.444;6.528;2024-03-02T14:56:09;13.10;94.90
9849;DHT22;4963;51.444;6.528;2024-03-02T14:58:38;13.10;95.20
9849;DHT22;4963;51.444;6.528;2024-03-02T15:01:05;13.10;95.10
9849;DHT22;4963;51.444;6.528;2024-03-02T15:03:32;13.10;95.30
9849;DHT22;4963;51.444;6.528;2024-03-02T15:06:01;13.10;95.40
9849;DHT22;4963;51.444;6.528;2024-03-02T15:08:29;13.10;95.50
9849;DHT22;4963;51.444;6.528;2024-03-02T15:10:57;13.10;95.30
9849;DHT22;4963;51.444;6.528;2024-03-02T15:13:25;13.20;95.20
9849;DHT22;4963;51.444;6.528;2024-03-02T15:15:53;13.20;95.30
9849;DHT22;4963;51.444;6.528;2024-03-02T15:18:19;13.20;95.10
9849;DHT22;4963;51.444;6.528;2024-03-02T15:20:46;13.20;94.80
9849;DHT22;4963;51.444;6.528;2024-03-02T15:23:15;13.30;95.00
9849;DHT22;4963;51.444;6.528;2024-03-02T15:25:41;13.30;95.00
9849;DHT22;4963;51.444;6.528;2024-03-02T15:28:08;13.30;94.80
9849;DHT22;4963;51.444;6.528;2024-03-02T15:30:35;13.30;95.10
9849;DHT22;4963;51.444;6.528;2024-03-02T15:33:03;13.30;94.90
9849;DHT22;4963;51.444;6.528;2024-03-02T15:35:30;13.30;95.10
9849;DHT22;4963;51.444;6.528;2024-03-02T15:37:56;13.30;95.00
9849;DHT22;4963;51.444;6.528;2024-03-02T15:40:24;13.30;95.10
9849;DHT22;4963;51.444;6.528;2024-03-02T15:42:51;13.20;95.50
9849;DHT22;4963;51.444;6.528;2024-03-02T15:45:18;13.20;95.30
9849;DHT22;4963;51.444;6.528;2024-03-02T15:47:45;13.20;95.30
9849;DHT22;4963;51.444;6.528;2024-03-02T15:50:11;13.30;95.10
9849;DHT22;4963;51.444;6.528;2024-03-02T15:52:40;13.30;95.10
9849;DHT22;4963;51.444;6.528;2024-03-02T15:55:08;13.30;95.20
9849;DHT22;4963;51.444;6.528;2024-03-02T15:57:36;13.30;94.80
9849;DHT22;4963;51.444;6.528;2024-03-02T16:00:04;13.30;95.00
9849;DHT22;4963;51.444;6.528;2024-03-02T16:02:32;13.30;94.80
9849;DHT22;4963;51.444;6.528;2024-03-02T16:04:59;13.30;94.70
9849;DHT22;4963;51.444;6.528;2024-03-02T16:07:25;13.30;94.80
9849;DHT22;4963;51.444;6.528;2024-03-02T16:09:52;13.30;94.30
9849;DHT22;4963;51.444;6.528;2024-03-02T16:12:19;13.30;94.40
9849;DHT22;4963;51.444;6.528;2024-03-02T16:14:48;13.30;94.60